sensor_id;sensor_type;location;lat;lon;timestamp;temperature;humidity
21508;DHT22;10915;54.352;9.074;2023-04-25T00:01:05;7.60;99.90
21508;DHT22;10915;54.352;9.074;2023-04-25T00:03:32;7.60;99.90
21508;DHT22;10915;54.352;9.074;2023-04-25T00:06:00;7.60;99.90
21508;DHT22;10915;54.352;9.074;2023-04-25T00:08:29;7.60;99.90
21508;DHT22;10915;54.352;9.074;2023-04-25T00:10:56;7.50;99.90
21508;DHT22;10915;54.352;9.074;2023-04-25T00:13:22;7.50;99.90
21508;DHT22;10915;54.352;9.074;2023-04-25T00:15:48;7.40;99.90
21508;DHT22;10915;54.352;9.074;2023-04-25T00:18:14;7.40;99.90
21508;DHT22;10915;54.352;9.074;2023-04-25T00:20:40;7.30;99.90
21508;DHT22;10915;54.352;9.074;2023-04-25T00:23:09;7.30;99.90
21508;DHT22;10915;54.352;9.074;2023-04-25T00:25:35;7.40;99.90
21508;DHT22;10915;54.352;9.074;2023-04-25T00:28:01;7.30;99.90
21508;DHT22;10915;54.352;9.074;2023-04-25T00:30:27;7.40;99.90
21508;DHT22;10915;54.352;9.074;2023-04-25T00:32:52;7.30;99.90
21508;DHT22;10915;54.352;9.074;2023-04-25T00:35:18;7.30;99.90
21508;DHT22;10915;54.352;9.074;2023-04-25T00:37:44;7.20;99.90
21508;DHT22;10915;54.352;9.074;2023-04-25T00:40:10;7.10;99.90
21508;DHT22;10915;54.352;9.074;2023-04-25T00:42:37;7.10;99.90
21508;DHT22;10915;54.352;9.074;2023-04-25T00:45:05;7.00;99.90
21508;DHT22;10915;54.352;9.074;2023-04-25T00:47:33;6.90;99.90
21508;DHT22;10915;54.352;9.074;2023-04-25T00:49:58;6.90;99.90
21508;DHT22;10915;54.352;9.074;2023-04-25T00:52:24;6.80;99.90
21508;DHT22;10915;54.352;9.074;2023-04-25T00:54:50;6.80;99.90
21508;DHT22;10915;54.352;9.074;2023-04-25T00:57:16;6.80;99.90
21508;DHT22;10915;54.352;9.074;2023-04-25T00:59:44;6.70;99.90
21508;DHT22;10915;54.352;9.074;2023-04-25T01:02:11;6.70;99.90
21508;DHT22;10915;54.352;9.074;2023-04-25T01:04:37;6.70;99.90
21508;DHT22;10915;54.352;9.074;2023-04-25T01:07:03;6.70;99.90
21508;DHT22;10915;54.352;9.074;2023-04-25T01:09:30;6.70;99.90
21508;DHT22;10915;54.352;9.074;2023-04-25T01:11:57;6.70;99.90
21508;DHT22;10915;54.352;9.074;2023-04-25T01:14:23;6.60;99.90
21508;DHT22;10915;54.352;9.074;2023-04-25T01:16:49;6.60;99.90
21508;DHT22;10915;54.352;9.074;2023-04-25T01:19:16;6.70;99.90
21508;DHT22;10915;54.352;9.074;2023-04-25T01:21:43;6.70;99.90
21508;DHT22;10915;54.352;9.074;2023-04-25T01:24:09;6.70;99.90
21508;DHT22;10915;54.352;9.074;2023-04-25T01:26:35;6.70;99.90
21508;DHT22;10915;54.352;9.074;2023-04-25T01:29:01;6.70;99.90
21508;DHT22;10915;54.352;9.074;2023-04-25T01:31:28;6.80;99.90
21508;DHT22;10915;54.352;9.074;2023-04-25T01:33:55;6.80;99.90
21508;DHT22;10915;54.352;9.074;2023-04-25T01:36:21;6.80;99.90
21508;DHT22;10915;54.352;9.074;2023-04-25T01:38:47;6.80;99.90
21508;DHT22;10915;54.352;9.074;2023-04-25T01:41:14;6.80;99.90
21508;DHT22;10915;54.352;9.074;2023-04-25T01:43:40;6.70;99.90
21508;DHT22;10915;54.352;9.074;2023-04-25T01:46:06;6.70;99.90
21508;DHT22;10915;54.352;9.074;2023-04-25T01:48:32;6.80;99.90
21508;DHT22;10915;54.352;9.074;2023-04-25T01:50:58;6.80;99.90
21508;DHT22;10915;54.352;9.074;2023-04-25T01:53:24;6.80;99.90
21508;DHT22;10915;54.352;9.074;2023-04-25T01:55:50;6.80;99.90
21508;DHT22;10915;54.352;9.074;2023-04-25T01:58:15;6.80;99.90
21508;DHT22;10915;54.352;9.074;2023-04-25T02:00:41;6.80;99.90
21508;DHT22;10915;54.352;9.074;2023-04-25T02:03:07;6.80;99.90
21508;DHT22;10915;54.352;9.074;2023-04-25T02:05:37;6.80;99.90
21508;DHT22;10915;54.352;9.074;2023-04-25T02:08:05;6.80;99.90
21508;DHT22;10915;54.352;9.074;2023-04-25T02:10:31;6.80;99.90
21508;DHT22;10915;54.352;9.074;2023-04-25T02:12:58;6.80;99.90
21508;DHT22;10915;54.352;9.074;2023-04-25T02:15:24;6.80;99.90
21508;DHT22;10915;54.352;9.074;2023-04-25T02:17:49;6.80;99.90
21508;DHT22;10915;54.352;9.074;2023-04-25T02:20:15;6.80;99.90
21508;DHT22;10915;54.352;9.074;2023-04-25T02:22:45;6.80;99.90
21508;DHT22;10915;54.352;9.074;2023-04-25T02:25:11;6.80;99.90
21508;DHT22;10915;54.352;9.074;2023-04-25T02:27:37;6.80;99.90
21508;DHT22;10915;54.352;9.074;2023-04-25T02:30:04;6.80;99.90
21508;DHT22;10915;54.352;9.074;2023-04-25T02:32:30;6.80;99.90
21508;DHT22;10915;54.352;9.074;2023-04-25T02:34:55;6.80;99.90
21508;DHT22;10915;54.352;9.074;2023-04-25T02:37:24;6.80;99.90
21508;DHT22;10915;54.352;9.074;2023-04-25T02:39:49;6.70;99.90
21508;DHT22;10915;54.352;9.074;2023-04-25T02:42:15;6.70;99.90
21508;DHT22;10915;54.352;9.074;2023-04-25T02:44:41;6.70;99.90
21508;DHT22;10915;54.352;9.074;2023-04-25T02:47:06;6.70;99.90
21508;DHT22;10915;54.352;9.074;2023-04-25T02:49:32;6.70;99.90
21508;DHT22;10915;54.352;9.074;2023-04-25T02:51:58;6.70;99.90
21508;DHT22;10915;54.352;9.074;2023-04-25T02:54:23;6.70;99.90
21508;DHT22;10915;54.352;9.074;2023-04-25T02:56:49;6.70;99.90
21508;DHT22;10915;54.352;9.074;2023-04-25T02:59:15;6.70;99.90
21508;DHT22;10915;54.352;9.074;2023-04-25T03:01:40;6.70;99.90
21508;DHT22;10915;54.352;9.074;2023-04-25T03:04:06;6.70;99.90
21508;DHT22;10915;54.352;9.074;2023-04-25T03:06:32;6.70;99.90
21508;DHT22;10915;54.352;9.074;2023-04-25T03:08:57;6.70;99.90
21508;DHT22;10915;54.352;9.074;2023-04-25T03:11:26;6.70;99.90
21508;DHT22;10915;54.352;9.074;2023-04-25T03:13:51;6.70;99.90
21508;DHT22;10915;54.352;9.074;2023-04-25T03:16:17;6.70;99.90
21508;DHT22;10915;54.352;9.074;2023-04-25T03:18:42;6.70;99.90
21508;DHT22;10915;54.352;9.074;2023-04-25T03:21:08;6.60;99.90
21508;DHT22;10915;54.352;9.074;2023-04-25T03:23:34;6.60;99.90
21508;DHT22;10915;54.352;9.074;2023-04-25T03:25:59;6.50;99.90
21508;DHT22;10915;54.352;9.074;2023-04-25T03:28:25;6.50;99.90
21508;DHT22;10915;54.352;9.074;2023-04-25T03:30:51;6.50;99.90
21508;DHT22;10915;54.352;9.074;2023-04-25T03:33:17;6.50;99.90
21508;DHT22;10915;54.352;9.074;2023-04-25T03:35:42;6.50;99.90
21508;DHT22;10915;54.352;9.074;2023-04-25T03:38:08;6.60;99.90
21508;DHT22;10915;54.352;9.074;2023-04-25T03:40:34;6.60;99.90
21508;DHT22;10915;54.352;9.074;2023-04-25T03:42:59;6.60;99.90
21508;DHT22;10915;54.352;9.074;2023-04-25T03:45:25;6.60;99.90
21508;DHT22;10915;54.352;9.074;2023-04-25T03:47:50;6.60;99.90
21508;DHT22;10915;54.352;9.074;2023-04-25T03:50:16;6.60;99.90
21508;DHT22;10915;54.352;9.074;2023-04-25T03:52:42;6.70;99.90
21508;DHT22;10915;54.352;9.074;2023-04-25T03:55:08;6.70;99.90
21508;DHT22;10915;54.352;9.074;2023-04-25T03:57:34;6.70;99.90
21508;DHT22;10915;54.352;9.074;2023-04-25T04:00:00;6.70;99.90
21508;DHT22;10915;54.352;9.074;2023-04-25T04:02:25;6.70;99.90
21508;DHT22;10915;54.352;9.074;2023-04-25T04:04:51;6.70;99.90
21508;DHT22;10915;54.352;9.074;2023-04-25T04:07:17;6.70;99.90
21508;DHT22;10915;54.352;9.074;2023-04-25T04:09:42;6.60;99.90
21508;DHT22;10915;54.352;9.074;2023-04-25T04:12:08;6.60;99.90
21508;DHT22;10915;54.352;9.074;2023-04-25T04:14:33;6.60;99.90
21508;DHT22;10915;54.352;9.074;2023-04-25T04:16:59;6.60;99.90
21508;DHT22;10915;54.352;9.074;2023-04-25T04:19:25;6.50;99.90
21508;DHT22;10915;54.352;9.074;2023-04-25T04:21:51;6.50;99.90
21508;DHT22;10915;54.352;9.074;2023-04-25T04:24:16;6.50;99.90
21508;DHT22;10915;54.352;9.074;2023-04-25T04:26:42;6.50;99.90
21508;DHT22;10915;54.352;9.074;2023-04-25T04:29:10;6.50;99.90
21508;DHT22;10915;54.352;9.074;2023-04-25T04:31:36;6.50;99.90
21508;DHT22;10915;54.352;9.074;2023-04-25T04:34:02;6.60;99.90
21508;DHT22;10915;54.352;9.074;2023-04-25T04:36:29;6.60;99.90
21508;DHT22;10915;54.352;9.074;2023-04-25T04:38:55;6.60;99.90
21508;DHT22;10915;54.352;9.074;2023-04-25T04:41:22;6.70;99.90
21508;DHT22;10915;54.352;9.074;2023-04-25T04:43:47;6.70;99.90
21508;DHT22;10915;54.352;9.074;2023-04-25T04:46:13;6.70;99.90
21508;DHT22;10915;54.352;9.074;2023-04-25T04:48:39;6.80;99.90
21508;DHT22;10915;54.352;9.074;2023-04-25T04:51:06;6.80;99.90
21508;DHT22;10915;54.352;9.074;2023-04-25T04:53:32;6.80;99.90
21508;DHT22;10915;54.352;9.074;2023-04-25T04:55:58;6.80;99.90
21508;DHT22;10915;54.352;9.074;2023-04-25T04:58:23;6.80;99.90
21508;DHT22;10915;54.352;9.074;2023-04-25T05:00:49;6.80;99.90
21508;DHT22;10915;54.352;9.074;2023-04-25T05:03:15;6.70;99.90
21508;DHT22;10915;54.352;9.074;2023-04-25T05:05:41;6.80;99.90
21508;DHT22;10915;54.352;9.074;2023-04-25T05:08:07;6.80;99.90
21508;DHT22;10915;54.352;9.074;2023-04-25T05:10:32;6.80;99.90
21508;DHT22;10915;54.352;9.074;2023-04-25T05:12:58;6.80;99.90
21508;DHT22;10915;54.352;9.074;2023-04-25T05:15:24;6.90;99.90
21508;DHT22;10915;54.352;9.074;2023-04-25T05:17:50;6.90;99.90
21508;DHT22;10915;54.352;9.074;2023-04-25T05:20:15;6.90;99.90
21508;DHT22;10915;54.352;9.074;2023-04-25T05:22:41;7.00;99.90
21508;DHT22;10915;54.352;9.074;2023-04-25T05:25:08;7.00;99.90
21508;DHT22;10915;54.352;9.074;2023-04-25T05:27:34;7.10;99.90
21508;DHT22;10915;54.352;9.074;2023-04-25T05:30:00;7.10;99.90
21508;DHT22;10915;54.352;9.074;2023-04-25T05:32:26;7.10;99.90
21508;DHT22;10915;54.352;9.074;2023-04-25T05:34:51;7.10;99.90
21508;DHT22;10915;54.352;9.074;2023-04-25T05:37:17;7.10;99.90
21508;DHT22;10915;54.352;9.074;2023-04-25T05:39:43;7.20;99.90
21508;DHT22;10915;54.352;9.074;2023-04-25T05:42:08;7.20;99.90
21508;DHT22;10915;54.352;9.074;2023-04-25T05:44:34;7.20;99.90
21508;DHT22;10915;54.352;9.074;2023-04-25T05:47:00;7.20;99.90
21508;DHT22;10915;54.352;9.074;2023-04-25T05:49:26;7.20;99.90
21508;DHT22;10915;54.352;9.074;2023-04-25T05:51:51;7.20;99.90
21508;DHT22;10915;54.352;9.074;2023-04-25T05:54:17;7.20;99.90
21508;DHT22;10915;54.352;9.074;2023-04-25T05:56:42;7.10;99.90
21508;DHT22;10915;54.352;9.074;2023-04-25T05:59:08;7.10;99.90
21508;DHT22;10915;54.352;9.074;2023-04-25T06:01:34;7.10;99.90
21508;DHT22;10915;54.352;9.074;2023-04-25T06:03:59;7.10;99.90
21508;DHT22;10915;54.352;9.074;2023-04-25T06:06:25;7.10;99.90
21508;DHT22;10915;54.352;9.074;2023-04-25T06:08:52;7.10;99.90
21508;DHT22;10915;54.352;9.074;2023-04-25T06:11:17;7.10;99.90
21508;DHT22;10915;54.352;9.074;2023-04-25T06:13:43;7.20;99.90
21508;DHT22;10915;54.352;9.074;2023-04-25T06:16:08;7.20;99.90
21508;DHT22;10915;54.352;9.074;2023-04-25T06:18:34;7.30;99.90
21508;DHT22;10915;54.352;9.074;2023-04-25T06:21:00;7.30;99.90
21508;DHT22;10915;54.352;9.074;2023-04-25T06:23:25;7.30;99.90
21508;DHT22;10915;54.352;9.074;2023-04-25T06:25:51;7.40;99.90
21508;DHT22;10915;54.352;9.074;2023-04-25T06:28:17;7.50;99.90
21508;DHT22;10915;54.352;9.074;2023-04-25T06:30:42;7.60;99.90
21508;DHT22;10915;54.352;9.074;2023-04-25T06:33:08;7.60;99.90
21508;DHT22;10915;54.352;9.074;2023-04-25T06:35:34;7.60;99.90
21508;DHT22;10915;54.352;9.074;2023-04-25T06:38:00;7.70;99.90
21508;DHT22;10915;54.352;9.074;2023-04-25T06:40:25;7.70;99.90
21508;DHT22;10915;54.352;9.074;2023-04-25T06:42:51;7.80;99.90
21508;DHT22;10915;54.352;9.074;2023-04-25T06:45:16;7.80;99.90
21508;DHT22;10915;54.352;9.074;2023-04-25T06:47:42;7.90;99.90
21508;DHT22;10915;54.352;9.074;2023-04-25T06:50:08;8.00;99.90
21508;DHT22;10915;54.352;9.074;2023-04-25T06:52:34;8.10;99.90
21508;DHT22;10915;54.352;9.074;2023-04-25T06:55:00;8.10;99.90
21508;DHT22;10915;54.352;9.074;2023-04-25T06:57:25;8.10;99.90
21508;DHT22;10915;54.352;9.074;2023-04-25T06:59:51;8.10;99.90
21508;DHT22;10915;54.352;9.074;2023-04-25T07:02:16;8.10;99.90
21508;DHT22;10915;54.352;9.074;2023-04-25T07:04:42;8.10;99.90
21508;DHT22;10915;54.352;9.074;2023-04-25T07:07:08;8.10;99.90
21508;DHT22;10915;54.352;9.074;2023-04-25T07:09:33;8.10;99.90
21508;DHT22;10915;54.352;9.074;2023-04-25T07:11:59;8.10;99.90
21508;DHT22;10915;54.352;9.074;2023-04-25T07:14:27;8.10;99.90
21508;DHT22;10915;54.352;9.074;2023-04-25T07:16:52;8.10;99.90
21508;DHT22;10915;54.352;9.074;2023-04-25T07:19:18;8.10;99.90
21508;DHT22;10915;54.352;9.074;2023-04-25T07:21:43;7.90;99.90
21508;DHT22;10915;54.352;9.074;2023-04-25T07:24:09;7.60;99.90
21508;DHT22;10915;54.352;9.074;2023-04-25T07:26:35;7.40;99.90
21508;DHT22;10915;54.352;9.074;2023-04-25T07:29:00;7.30;99.90
21508;DHT22;10915;54.352;9.074;2023-04-25T07:31:26;7.30;99.90
21508;DHT22;10915;54.352;9.074;2023-04-25T07:33:52;7.40;99.90
21508;DHT22;10915;54.352;9.074;2023-04-25T07:36:17;7.50;99.90
21508;DHT22;10915;54.352;9.074;2023-04-25T07:38:43;7.60;99.90
21508;DHT22;10915;54.352;9.074;2023-04-25T07:41:09;7.70;99.90
21508;DHT22;10915;54.352;9.074;2023-04-25T07:43:34;7.90;99.90
21508;DHT22;10915;54.352;9.074;2023-04-25T07:46:00;8.10;99.90
21508;DHT22;10915;54.352;9.074;2023-04-25T07:48:26;8.40;99.90
21508;DHT22;10915;54.352;9.074;2023-04-25T07:50:51;8.60;99.90
21508;DHT22;10915;54.352;9.074;2023-04-25T07:53:17;8.80;99.90
21508;DHT22;10915;54.352;9.074;2023-04-25T07:55:43;8.90;99.90
21508;DHT22;10915;54.352;9.074;2023-04-25T07:58:10;9.00;99.90
21508;DHT22;10915;54.352;9.074;2023-04-25T08:00:36;9.10;99.90
21508;DHT22;10915;54.352;9.074;2023-04-25T08:03:02;9.20;99.90
21508;DHT22;10915;54.352;9.074;2023-04-25T08:05:28;9.30;99.90
21508;DHT22;10915;54.352;9.074;2023-04-25T08:07:54;9.40;99.90
21508;DHT22;10915;54.352;9.074;2023-04-25T08:10:19;9.30;99.90
21508;DHT22;10915;54.352;9.074;2023-04-25T08:12:46;9.30;99.90
21508;DHT22;10915;54.352;9.074;2023-04-25T08:15:11;9.20;99.90
21508;DHT22;10915;54.352;9.074;2023-04-25T08:17:39;9.20;99.90
21508;DHT22;10915;54.352;9.074;2023-04-25T08:20:05;9.10;99.90
21508;DHT22;10915;54.352;9.074;2023-04-25T08:22:31;9.10;99.90
21508;DHT22;10915;54.352;9.074;2023-04-25T08:24:57;9.40;99.90
21508;DHT22;10915;54.352;9.074;2023-04-25T08:27:22;9.80;99.90
21508;DHT22;10915;54.352;9.074;2023-04-25T08:29:49;9.90;99.90
21508;DHT22;10915;54.352;9.074;2023-04-25T08:32:15;9.60;99.90
21508;DHT22;10915;54.352;9.074;2023-04-25T08:34:40;9.20;99.90
21508;DHT22;10915;54.352;9.074;2023-04-25T08:37:08;8.80;99.90
21508;DHT22;10915;54.352;9.074;2023-04-25T08:39:38;8.70;99.90
21508;DHT22;10915;54.352;9.074;2023-04-25T08:42:06;8.70;99.90
21508;DHT22;10915;54.352;9.074;2023-04-25T08:44:34;9.00;99.90
21508;DHT22;10915;54.352;9.074;2023-04-25T08:47:02;9.40;99.90
21508;DHT22;10915;54.352;9.074;2023-04-25T08:49:28;10.10;99.90
21508;DHT22;10915;54.352;9.074;2023-04-25T08:51:56;10.60;99.90
21508;DHT22;10915;54.352;9.074;2023-04-25T08:54:27;11.10;99.90
21508;DHT22;10915;54.352;9.074;2023-04-25T08:56:54;11.50;99.90
21508;DHT22;10915;54.352;9.074;2023-04-25T08:59:23;11.80;99.90
21508;DHT22;10915;54.352;9.074;2023-04-25T09:01:49;12.20;99.90
21508;DHT22;10915;54.352;9.074;2023-04-25T09:04:15;12.70;99.90
21508;DHT22;10915;54.352;9.074;2023-04-25T09:06:41;13.30;99.90
21508;DHT22;10915;54.352;9.074;2023-04-25T09:09:08;13.60;99.90
21508;DHT22;10915;54.352;9.074;2023-04-25T09:11:35;14.10;99.90
21508;DHT22;10915;54.352;9.074;2023-04-25T09:14:12;14.90;99.90
21508;DHT22;10915;54.352;9.074;2023-04-25T09:19:33;14.40;99.90
21508;DHT22;10915;54.352;9.074;2023-04-25T09:22:02;13.60;99.90
21508;DHT22;10915;54.352;9.074;2023-04-25T09:24:44;12.90;99.90
21508;DHT22;10915;54.352;9.074;2023-04-25T09:27:21;12.40;99.90
21508;DHT22;10915;54.352;9.074;2023-04-25T09:29:57;12.10;99.90
21508;DHT22;10915;54.352;9.074;2023-04-25T09:32:24;11.80;99.90
21508;DHT22;10915;54.352;9.074;2023-04-25T09:34:55;11.60;99.90
21508;DHT22;10915;54.352;9.074;2023-04-25T09:39:48;10.90;99.90
21508;DHT22;10915;54.352;9.074;2023-04-25T09:42:16;10.50;99.90
21508;DHT22;10915;54.352;9.074;2023-04-25T09:44:43;10.30;99.90
21508;DHT22;10915;54.352;9.074;2023-04-25T09:47:11;10.10;99.90
21508;DHT22;10915;54.352;9.074;2023-04-25T09:49:40;9.90;99.90
21508;DHT22;10915;54.352;9.074;2023-04-25T09:52:06;9.80;99.90
21508;DHT22;10915;54.352;9.074;2023-04-25T09:54:32;9.90;99.90
21508;DHT22;10915;54.352;9.074;2023-04-25T09:57:06;10.00;99.90
21508;DHT22;10915;54.352;9.074;2023-04-25T09:59:39;10.10;99.90
21508;DHT22;10915;54.352;9.074;2023-04-25T10:02:07;10.20;99.90
21508;DHT22;10915;54.352;9.074;2023-04-25T10:04:35;10.30;99.90
21508;DHT22;10915;54.352;9.074;2023-04-25T10:07:03;10.30;99.90
21508;DHT22;10915;54.352;9.074;2023-04-25T10:09:31;10.40;99.90
21508;DHT22;10915;54.352;9.074;2023-04-25T10:12:00;10.70;99.90
21508;DHT22;10915;54.352;9.074;2023-04-25T10:14:26;11.30;99.90
21508;DHT22;10915;54.352;9.074;2023-04-25T10:16:54;11.80;99.90
21508;DHT22;10915;54.352;9.074;2023-04-25T10:19:21;12.10;99.90
21508;DHT22;10915;54.352;9.074;2023-04-25T10:22:56;12.40;99.90
21508;DHT22;10915;54.352;9.074;2023-04-25T10:25:03;12.40;99.90
21508;DHT22;10915;54.352;9.074;2023-04-25T10:27:31;12.40;99.90
21508;DHT22;10915;54.352;9.074;2023-04-25T10:30:15;12.00;99.90
21508;DHT22;10915;54.352;9.074;2023-04-25T10:32:43;12.00;99.90
21508;DHT22;10915;54.352;9.074;2023-04-25T10:35:16;12.10;99.90
21508;DHT22;10915;54.352;9.074;2023-04-25T10:38:03;12.30;99.90
21508;DHT22;10915;54.352;9.074;2023-04-25T10:40:29;12.20;99.90
21508;DHT22;10915;54.352;9.074;2023-04-25T10:42:55;12.00;99.90
21508;DHT22;10915;54.352;9.074;2023-04-25T10:45:22;11.90;99.90
21508;DHT22;10915;54.352;9.074;2023-04-25T10:47:47;11.60;99.90
21508;DHT22;10915;54.352;9.074;2023-04-25T10:50:17;11.30;99.90
21508;DHT22;10915;54.352;9.074;2023-04-25T10:52:42;11.00;99.90
21508;DHT22;10915;54.352;9.074;2023-04-25T10:55:09;11.30;99.90
21508;DHT22;10915;54.352;9.074;2023-04-25T10:57:40;11.70;99.90
21508;DHT22;10915;54.352;9.074;2023-04-25T11:00:08;11.60;99.90
21508;DHT22;10915;54.352;9.074;2023-04-25T11:02:58;11.40;99.90
21508;DHT22;10915;54.352;9.074;2023-04-25T11:05:32;11.20;99.90
21508;DHT22;10915;54.352;9.074;2023-04-25T11:07:58;11.20;99.90
21508;DHT22;10915;54.352;9.074;2023-04-25T11:10:29;11.10;99.90
21508;DHT22;10915;54.352;9.074;2023-04-25T11:12:56;11.20;99.90
21508;DHT22;10915;54.352;9.074;2023-04-25T11:15:22;11.30;99.90
21508;DHT22;10915;54.352;9.074;2023-04-25T11:17:47;11.40;99.90
21508;DHT22;10915;54.352;9.074;2023-04-25T11:20:13;11.50;99.90
21508;DHT22;10915;54.352;9.074;2023-04-25T11:22:40;11.70;99.90
21508;DHT22;10915;54.352;9.074;2023-04-25T11:25:10;11.80;99.90
21508;DHT22;10915;54.352;9.074;2023-04-25T11:27:52;11.80;99.90
21508;DHT22;10915;54.352;9.074;2023-04-25T11:30:18;12.00;99.90
21508;DHT22;10915;54.352;9.074;2023-04-25T11:32:44;12.20;99.90
21508;DHT22;10915;54.352;9.074;2023-04-25T11:35:10;12.40;99.90
21508;DHT22;10915;54.352;9.074;2023-04-25T11:37:39;12.40;99.90
21508;DHT22;10915;54.352;9.074;2023-04-25T11:40:05;12.40;99.90
21508;DHT22;10915;54.352;9.074;2023-04-25T11:42:39;12.40;99.90
21508;DHT22;10915;54.352;9.074;2023-04-25T11:45:08;12.40;99.90
21508;DHT22;10915;54.352;9.074;2023-04-25T11:47:35;12.00;99.90
21508;DHT22;10915;54.352;9.074;2023-04-25T11:50:02;11.50;99.90
21508;DHT22;10915;54.352;9.074;2023-04-25T11:52:43;11.10;99.90
21508;DHT22;10915;54.352;9.074;2023-04-25T11:55:19;10.90;99.90
21508;DHT22;10915;54.352;9.074;2023-04-25T11:57:47;11.10;99.90
21508;DHT22;10915;54.352;9.074;2023-04-25T12:00:18;11.40;99.90
21508;DHT22;10915;54.352;9.074;2023-04-25T12:02:55;11.70;99.90
21508;DHT22;10915;54.352;9.074;2023-04-25T12:05:25;11.90;99.90
21508;DHT22;10915;54.352;9.074;2023-04-25T12:07:51;11.80;99.90
21508;DHT22;10915;54.352;9.074;2023-04-25T12:10:17;11.90;99.90
21508;DHT22;10915;54.352;9.074;2023-04-25T12:12:45;11.70;99.90
21508;DHT22;10915;54.352;9.074;2023-04-25T12:15:31;11.40;99.90
21508;DHT22;10915;54.352;9.074;2023-04-25T12:17:58;11.20;99.90
21508;DHT22;10915;54.352;9.074;2023-04-25T12:20:27;11.50;99.90
21508;DHT22;10915;54.352;9.074;2023-04-25T12:22:52;12.10;99.90
21508;DHT22;10915;54.352;9.074;2023-04-25T12:25:37;12.50;99.90
21508;DHT22;10915;54.352;9.074;2023-04-25T12:30:57;12.90;99.90
21508;DHT22;10915;54.352;9.074;2023-04-25T12:33:24;12.70;99.90
21508;DHT22;10915;54.352;9.074;2023-04-25T12:35:50;12.20;99.90
21508;DHT22;10915;54.352;9.074;2023-04-25T12:38:26;12.00;99.90
21508;DHT22;10915;54.352;9.074;2023-04-25T12:40:53;11.70;99.90
21508;DHT22;10915;54.352;9.074;2023-04-25T12:43:19;11.60;99.90
21508;DHT22;10915;54.352;9.074;2023-04-25T12:45:47;11.50;99.90
21508;DHT22;10915;54.352;9.074;2023-04-25T12:48:13;11.30;99.90
21508;DHT22;10915;54.352;9.074;2023-04-25T12:50:38;11.20;99.90
21508;DHT22;10915;54.352;9.074;2023-04-25T12:53:04;11.10;99.90
21508;DHT22;10915;54.352;9.074;2023-04-25T12:55:29;10.90;99.90
21508;DHT22;10915;54.352;9.074;2023-04-25T12:57:55;10.80;99.90
21508;DHT22;10915;54.352;9.074;2023-04-25T13:00:21;10.90;99.90
21508;DHT22;10915;54.352;9.074;2023-04-25T13:02:46;11.10;99.90
21508;DHT22;10915;54.352;9.074;2023-04-25T13:05:12;11.40;99.90
21508;DHT22;10915;54.352;9.074;2023-04-25T13:07:38;11.70;99.90
21508;DHT22;10915;54.352;9.074;2023-04-25T13:10:05;11.70;99.90
21508;DHT22;10915;54.352;9.074;2023-04-25T13:12:31;11.70;99.90
21508;DHT22;10915;54.352;9.074;2023-04-25T13:14:57;11.90;99.90
21508;DHT22;10915;54.352;9.074;2023-04-25T13:17:22;11.90;99.90
21508;DHT22;10915;54.352;9.074;2023-04-25T13:19:48;12.00;99.90
21508;DHT22;10915;54.352;9.074;2023-04-25T13:22:13;12.10;99.90
21508;DHT22;10915;54.352;9.074;2023-04-25T13:24:40;12.30;99.90
21508;DHT22;10915;54.352;9.074;2023-04-25T13:27:06;12.30;99.90
21508;DHT22;10915;54.352;9.074;2023-04-25T13:29:31;12.20;99.90
21508;DHT22;10915;54.352;9.074;2023-04-25T13:32:00;12.10;99.90
21508;DHT22;10915;54.352;9.074;2023-04-25T13:34:26;11.90;99.90
21508;DHT22;10915;54.352;9.074;2023-04-25T13:36:51;11.40;99.90
21508;DHT22;10915;54.352;9.074;2023-04-25T13:39:17;11.20;99.90
21508;DHT22;10915;54.352;9.074;2023-04-25T13:41:43;11.10;99.90
21508;DHT22;10915;54.352;9.074;2023-04-25T13:44:09;11.10;99.90
21508;DHT22;10915;54.352;9.074;2023-04-25T13:46:35;11.30;99.90
21508;DHT22;10915;54.352;9.074;2023-04-25T13:49:03;11.40;99.90
21508;DHT22;10915;54.352;9.074;2023-04-25T13:51:28;11.30;99.90
21508;DHT22;10915;54.352;9.074;2023-04-25T13:53:54;11.30;99.90
21508;DHT22;10915;54.352;9.074;2023-04-25T13:56:20;11.30;99.90
21508;DHT22;10915;54.352;9.074;2023-04-25T13:58:47;11.30;99.90
21508;DHT22;10915;54.352;9.074;2023-04-25T14:01:13;11.50;99.90
21508;DHT22;10915;54.352;9.074;2023-04-25T14:03:38;11.70;99.90
21508;DHT22;10915;54.352;9.074;2023-04-25T14:06:05;12.00;99.90
21508;DHT22;10915;54.352;9.074;2023-04-25T14:08:31;12.10;99.90
21508;DHT22;10915;54.352;9.074;2023-04-25T14:10:57;12.10;99.90
21508;DHT22;10915;54.352;9.074;2023-04-25T14:13:22;11.90;99.90
21508;DHT22;10915;54.352;9.074;2023-04-25T14:15:49;11.90;99.90
21508;DHT22;10915;54.352;9.074;2023-04-25T14:18:15;11.90;99.90
21508;DHT22;10915;54.352;9.074;2023-04-25T14:20:41;11.80;99.90
21508;DHT22;10915;54.352;9.074;2023-04-25T14:23:07;11.80;99.90
21508;DHT22;10915;54.352;9.074;2023-04-25T14:25:32;11.60;99.90
21508;DHT22;10915;54.352;9.074;2023-04-25T14:27:58;11.40;99.90
21508;DHT22;10915;54.352;9.074;2023-04-25T14:30:23;11.10;99.90
21508;DHT22;10915;54.352;9.074;2023-04-25T14:32:49;10.50;99.90
21508;DHT22;10915;54.352;9.074;2023-04-25T14:35:15;9.90;99.90
21508;DHT22;10915;54.352;9.074;2023-04-25T14:37:41;9.50;99.90
21508;DHT22;10915;54.352;9.074;2023-04-25T14:40:07;9.30;99.90
21508;DHT22;10915;54.352;9.074;2023-04-25T14:42:36;9.50;99.90
21508;DHT22;10915;54.352;9.074;2023-04-25T14:45:06;9.80;99.90
21508;DHT22;10915;54.352;9.074;2023-04-25T14:47:32;10.20;99.90
21508;DHT22;10915;54.352;9.074;2023-04-25T14:49:58;10.30;99.90
21508;DHT22;10915;54.352;9.074;2023-04-25T14:52:24;10.50;99.90
21508;DHT22;10915;54.352;9.074;2023-04-25T14:54:51;10.70;99.90
21508;DHT22;10915;54.352;9.074;2023-04-25T14:57:17;10.70;99.90
21508;DHT22;10915;54.352;9.074;2023-04-25T14:59:42;10.80;99.90
21508;DHT22;10915;54.352;9.074;2023-04-25T15:02:08;10.80;99.90
21508;DHT22;10915;54.352;9.074;2023-04-25T15:07:05;10.90;99.90
21508;DHT22;10915;54.352;9.074;2023-04-25T15:09:31;10.90;99.90
21508;DHT22;10915;54.352;9.074;2023-04-25T15:11:57;10.90;99.90
21508;DHT22;10915;54.352;9.074;2023-04-25T15:14:23;10.70;99.90
21508;DHT22;10915;54.352;9.074;2023-04-25T15:16:49;10.50;99.90
21508;DHT22;10915;54.352;9.074;2023-04-25T15:19:15;10.30;99.90
21508;DHT22;10915;54.352;9.074;2023-04-25T15:21:41;10.10;99.90
21508;DHT22;10915;54.352;9.074;2023-04-25T15:24:06;9.90;99.90
21508;DHT22;10915;54.352;9.074;2023-04-25T15:26:33;9.70;99.90
21508;DHT22;10915;54.352;9.074;2023-04-25T15:28:58;9.70;99.90
21508;DHT22;10915;54.352;9.074;2023-04-25T15:31:24;9.60;99.90
21508;DHT22;10915;54.352;9.074;2023-04-25T15:33:49;9.40;99.90
21508;DHT22;10915;54.352;9.074;2023-04-25T15:36:15;9.40;99.90
21508;DHT22;10915;54.352;9.074;2023-04-25T15:38:42;9.50;99.90
21508;DHT22;10915;54.352;9.074;2023-04-25T15:41:08;9.50;99.90
21508;DHT22;10915;54.352;9.074;2023-04-25T15:43:34;9.60;99.90
21508;DHT22;10915;54.352;9.074;2023-04-25T15:46:03;9.50;99.90
21508;DHT22;10915;54.352;9.074;2023-04-25T15:48:29;9.70;99.90